createdAt,value
2022-08-05T00:00:16.511Z,22.30
2022-08-05T00:02:51.128Z,22.40
2022-08-05T00:06:01.666Z,22.30
2022-08-05T00:08:30.839Z,22.30
2022-08-05T00:11:00.969Z,22.30
2022-08-05T00:13:39.538Z,22.30
2022-08-05T00:16:10.912Z,22.20
2022-08-05T00:18:40.532Z,22.20
2022-08-05T00:21:09.566Z,22.20
2022-08-05T00:23:45.731Z,22.10
2022-08-05T00:26:15.302Z,22.10
2022-08-05T00:28:44.361Z,22.10
2022-08-05T00:31:13.583Z,22.00
2022-08-05T00:34:54.152Z,22.00
2022-08-05T00:37:10.602Z,22.00
2022-08-05T00:39:15.328Z,22.00
2022-08-05T00:41:52.004Z,22.00
2022-08-05T00:44:30.892Z,22.00
2022-08-05T00:47:02.129Z,22.00
2022-08-05T00:49:32.646Z,21.90
2022-08-05T00:52:12.029Z,21.80
2022-08-05T00:54:39.317Z,21.80
2022-08-05T00:57:06.531Z,21.70
2022-08-05T00:59:34.512Z,21.60
2022-08-05T01:02:11.468Z,21.50
2022-08-05T01:04:42.103Z,21.50
2022-08-05T01:07:13.669Z,21.50
2022-08-05T01:09:41.897Z,21.50
2022-08-05T01:12:18.881Z,21.50
2022-08-05T01:14:59.584Z,21.50
2022-08-05T01:17:44.035Z,21.50
2022-08-05T01:20:27.068Z,21.60
2022-08-05T01:23:23.744Z,21.60
2022-08-05T01:26:16.429Z,21.70
2022-08-05T01:29:05.076Z,21.60
2022-08-05T01:31:44.738Z,21.50
2022-08-05T01:34:26.675Z,21.50
2022-08-05T01:37:06.164Z,21.40
2022-08-05T01:39:46.685Z,21.30
2022-08-05T01:42:16.317Z,21.20
2022-08-05T01:44:44.317Z,21.20
2022-08-05T01:47:21.265Z,21.20
2022-08-05T01:50:01.652Z,21.20
2022-08-05T01:52:30.479Z,21.20
2022-08-05T01:55:00.491Z,21.20
2022-08-05T01:58:09.946Z,21.30
2022-08-05T02:00:17.177Z,21.30
2022-08-05T02:02:54.731Z,21.30
2022-08-05T02:05:25.159Z,21.30
2022-08-05T02:08:01.275Z,21.30
2022-08-05T02:10:31.491Z,21.20
2022-08-05T02:13:16.630Z,21.20
2022-08-05T02:15:50.261Z,21.10
2022-08-05T02:18:35.229Z,21.10
2022-08-05T02:21:14.731Z,21.10
2022-08-05T02:23:43.890Z,21.00
2022-08-05T02:26:15.800Z,21.00
2022-08-05T02:28:45.764Z,21.00
2022-08-05T02:31:21.038Z,21.00
2022-08-05T02:33:58.071Z,21.00
2022-08-05T02:36:27.532Z,21.10
2022-08-05T02:38:58.913Z,21.10
2022-08-05T02:41:28.577Z,21.10
2022-08-05T02:44:11.984Z,21.10
2022-08-05T02:46:53.536Z,21.00
2022-08-05T02:49:35.701Z,21.00
2022-08-05T02:52:07.879Z,20.90
2022-08-05T02:54:37.147Z,20.90
2022-08-05T02:57:10.111Z,20.80
2022-08-05T02:59:54.574Z,20.80
2022-08-05T03:02:24.655Z,20.80
2022-08-05T03:04:55.243Z,20.90
2022-08-05T03:07:40.473Z,20.90
2022-08-05T03:10:10.158Z,20.80
2022-08-05T03:12:38.634Z,20.90
2022-08-05T03:15:09.219Z,20.90
2022-08-05T03:17:41.446Z,20.90
2022-08-05T03:20:10.341Z,20.90
2022-08-05T03:22:37.770Z,20.90
2022-08-05T03:25:32.742Z,20.90
2022-08-05T03:28:00.356Z,20.90
2022-08-05T03:30:33.642Z,21.00
2022-08-05T03:33:02.103Z,21.00
2022-08-05T03:35:29.758Z,20.90
2022-08-05T03:38:01.233Z,20.90
2022-08-05T03:40:31.988Z,20.90
2022-08-05T03:43:15.884Z,21.00
2022-08-05T03:45:57.416Z,21.10
2022-08-05T03:48:27.593Z,21.20
2022-08-05T03:52:35.090Z,21.20
2022-08-05T03:55:50.145Z,21.20
2022-08-05T03:57:00.042Z,21.30
2022-08-05T03:59:54.390Z,21.20
2022-08-05T04:02:37.670Z,21.20
2022-08-05T04:05:08.354Z,21.20
2022-08-05T04:07:57.529Z,21.20
2022-08-05T04:10:28.413Z,21.20
2022-08-05T04:12:59.536Z,21.20
2022-08-05T04:15:27.982Z,21.10
2022-08-05T04:18:06.884Z,21.20
2022-08-05T04:20:34.483Z,21.30
2022-08-05T04:23:02.104Z,21.30
2022-08-05T04:25:56.737Z,21.30
2022-08-05T04:28:17.197Z,21.30
2022-08-05T04:30:45.153Z,21.30
2022-08-05T04:33:12.838Z,21.30
2022-08-05T04:36:15.667Z,21.30
2022-08-05T04:38:39.131Z,21.40
2022-08-05T04:41:09.318Z,21.50
2022-08-05T04:43:38.048Z,21.60
2022-08-05T04:46:13.944Z,21.60
2022-08-05T04:48:55.266Z,21.70
2022-08-05T04:51:26.041Z,21.90
2022-08-05T04:53:58.513Z,22.00
2022-08-05T04:56:34.406Z,22.10
2022-08-05T04:59:21.824Z,22.30
2022-08-05T05:02:07.569Z,22.40
2022-08-05T05:04:47.794Z,22.60
2022-08-05T05:07:17.660Z,22.80
2022-08-05T05:09:45.480Z,22.90
2022-08-05T05:12:12.719Z,23.10
2022-08-05T05:14:49.159Z,23.20
2022-08-05T05:17:23.412Z,23.30
2022-08-05T05:19:55.223Z,23.40
2022-08-05T05:22:26.356Z,23.50
2022-08-05T05:24:58.723Z,23.60
2022-08-05T05:27:41.446Z,23.60
2022-08-05T05:30:15.642Z,23.70
2022-08-05T05:33:00.956Z,23.80
2022-08-05T05:35:34.233Z,23.90
2022-08-05T05:38:09.459Z,23.90
2022-08-05T05:40:48.045Z,24.00
2022-08-05T05:43:54.828Z,24.10
2022-08-05T05:46:17.483Z,24.30
2022-08-05T05:48:48.138Z,24.50
2022-08-05T05:51:22.403Z,24.60
2022-08-05T05:53:57.311Z,24.70
2022-08-05T05:56:33.396Z,24.90
2022-08-05T05:59:06.517Z,24.90
2022-08-05T06:01:38.045Z,25.00
2022-08-05T06:04:07.536Z,25.00
2022-08-05T06:06:35.635Z,25.00
2022-08-05T06:09:06.081Z,25.00
2022-08-05T06:11:34.955Z,24.90
2022-08-05T06:14:06.744Z,24.90
2022-08-05T06:16:37.223Z,24.90
2022-08-05T06:19:07.066Z,25.00
2022-08-05T06:21:37.577Z,25.10
2022-08-05T06:24:11.207Z,25.20
2022-08-05T06:26:51.290Z,25.30
2022-08-05T06:29:44.291Z,25.40
2022-08-05T06:32:25.214Z,25.50
2022-08-05T06:34:58.232Z,25.60
2022-08-05T06:37:58.011Z,25.60
2022-08-05T06:40:18.570Z,25.70
2022-08-05T06:42:52.148Z,25.90
2022-08-05T06:45:44.925Z,26.00
2022-08-05T06:48:44.194Z,26.10
2022-08-05T06:50:56.319Z,26.30
2022-08-05T06:53:28.591Z,26.50
2022-08-05T06:56:00.443Z,26.40
2022-08-05T06:58:34.849Z,26.30
2022-08-05T07:01:05.509Z,26.20
2022-08-05T07:03:33.525Z,26.10
2022-08-05T07:06:05.946Z,26.10
2022-08-05T07:08:47.857Z,26.10
2022-08-05T07:11:22.603Z,26.00
2022-08-05T07:14:15.330Z,26.00
2022-08-05T07:18:02.279Z,26.00
2022-08-05T07:20:23.131Z,26.00
2022-08-05T07:22:27.829Z,26.00
2022-08-05T07:24:55.305Z,25.90
2022-08-05T07:27:27.715Z,25.90
2022-08-05T07:30:24.008Z,25.80
2022-08-05T07:32:57.839Z,25.80
2022-08-05T07:36:05.227Z,25.80
2022-08-05T07:38:32.969Z,25.90
2022-08-05T07:41:04.452Z,25.90
2022-08-05T07:43:46.911Z,26.00
2022-08-05T07:46:24.222Z,26.00
2022-08-05T07:49:04.380Z,26.00
2022-08-05T07:51:36.360Z,26.00
2022-08-05T07:54:06.331Z,25.90
2022-08-05T07:57:02.704Z,25.90
2022-08-05T07:59:31.108Z,25.90
2022-08-05T08:02:16.253Z,26.10
2022-08-05T08:04:46.200Z,26.20
2022-08-05T08:07:13.879Z,26.30
2022-08-05T08:09:42.694Z,26.30
2022-08-05T08:12:20.242Z,26.30
2022-08-05T08:14:57.329Z,26.30
2022-08-05T08:17:30.717Z,26.40
2022-08-05T08:20:23.059Z,26.50
2022-08-05T08:22:51.630Z,26.50
2022-08-05T08:25:26.789Z,26.60
2022-08-05T08:28:06.852Z,26.60
2022-08-05T08:30:47.356Z,26.60
2022-08-05T08:33:16.780Z,26.70
2022-08-05T08:35:53.913Z,26.90
2022-08-05T08:38:35.282Z,26.80
2022-08-05T08:41:08.358Z,26.70
2022-08-05T08:45:19.091Z,26.60
2022-08-05T08:46:24.342Z,26.60
2022-08-05T08:49:07.764Z,26.40
2022-08-05T08:52:03.573Z,26.40
2022-08-05T08:54:27.334Z,26.50
2022-08-05T08:56:56.426Z,26.50
2022-08-05T08:59:27.655Z,26.50
2022-08-05T09:01:56.993Z,26.70
2022-08-05T09:04:30.430Z,26.80
2022-08-05T09:06:58.715Z,26.80
2022-08-05T09:09:34.723Z,26.90
2022-08-05T09:12:13.559Z,26.90
2022-08-05T09:14:56.575Z,27.00
2022-08-05T09:17:40.776Z,27.00
2022-08-05T09:20:11.315Z,27.10
2022-08-05T09:23:07.876Z,27.20
2022-08-05T09:26:01.136Z,27.20
2022-08-05T09:28:31.991Z,27.40
2022-08-05T09:31:18.303Z,27.60
2022-08-05T09:33:58.642Z,27.60
2022-08-05T09:36:56.143Z,27.70
2022-08-05T09:39:41.200Z,27.60
2022-08-05T09:42:20.261Z,27.80
2022-08-05T09:44:52.936Z,27.90
2022-08-05T09:47:28.604Z,27.90
2022-08-05T09:50:04.076Z,27.90
2022-08-05T09:52:32.225Z,27.90
2022-08-05T09:55:58.313Z,27.90
2022-08-05T09:57:54.446Z,28.00
2022-08-05T10:00:26.389Z,27.90
2022-08-05T10:02:54.728Z,27.80
2022-08-05T10:05:26.676Z,27.80
2022-08-05T10:08:36.009Z,27.90
2022-08-05T10:10:48.283Z,27.90
2022-08-05T10:13:47.670Z,27.70
2022-08-05T10:16:52.344Z,27.70
2022-08-05T10:19:23.646Z,27.90
2022-08-05T10:21:59.309Z,28.00
2022-08-05T10:24:27.111Z,28.20
2022-08-05T10:27:00.547Z,28.50
2022-08-05T10:30:41.333Z,28.60
2022-08-05T10:33:01.486Z,28.70
2022-08-05T10:35:07.159Z,28.80
2022-08-05T10:37:37.544Z,28.90
2022-08-05T10:41:04.659Z,29.00
2022-08-05T10:43:52.807Z,28.90
2022-08-05T10:46:23.951Z,28.70
2022-08-05T10:49:05.075Z,28.50
2022-08-05T10:51:57.715Z,28.60
2022-08-05T10:55:07.901Z,28.50
2022-08-05T10:57:39.417Z,28.70
2022-08-05T11:00:18.640Z,28.90
2022-08-05T11:03:25.201Z,28.90
2022-08-05T11:06:08.600Z,29.20
2022-08-05T11:09:32.211Z,29.30
2022-08-05T11:12:38.172Z,29.70
2022-08-05T11:16:00.210Z,29.80
2022-08-05T11:18:29.723Z,29.80
2022-08-05T11:20:57.626Z,29.80
2022-08-05T11:23:33.703Z,29.90
2022-08-05T11:26:17.130Z,30.00
2022-08-05T11:28:56.714Z,29.90
2022-08-05T11:31:58.419Z,29.90
2022-08-05T11:34:21.191Z,30.00
2022-08-05T11:36:52.911Z,30.00
2022-08-05T11:39:48.744Z,30.20
2022-08-05T11:42:18.290Z,30.30
2022-08-05T11:44:53.717Z,30.40
2022-08-05T11:47:48.309Z,30.30
2022-08-05T11:50:10.423Z,30.20
2022-08-05T11:52:43.992Z,30.40
2022-08-05T11:55:13.284Z,30.60
2022-08-05T11:58:10.480Z,30.60
2022-08-05T12:00:32.163Z,30.40
2022-08-05T12:03:16.659Z,30.30
2022-08-05T12:06:05.774Z,30.00
2022-08-05T12:08:49.936Z,30.00
2022-08-05T12:11:23.392Z,30.00
2022-08-05T12:14:04.069Z,29.80
2022-08-05T12:16:38.885Z,29.60
2022-08-05T12:19:08.318Z,29.60
2022-08-05T12:21:41.711Z,29.50
2022-08-05T12:24:09.878Z,29.60
2022-08-05T12:26:44.047Z,29.60
2022-08-05T12:29:22.473Z,29.80
2022-08-05T12:31:54.739Z,29.80
2022-08-05T12:34:32.031Z,29.70
2022-08-05T12:37:00.898Z,29.80
2022-08-05T12:39:37.364Z,29.70
2022-08-05T12:42:14.971Z,29.70
2022-08-05T12:44:44.534Z,29.60
2022-08-05T12:47:13.358Z,29.60
2022-08-05T12:50:03.140Z,29.90
2022-08-05T12:52:42.233Z,30.30
2022-08-05T12:55:25.170Z,30.50
2022-08-05T12:58:51.272Z,30.70
2022-08-05T13:02:01.311Z,30.60
2022-08-05T13:03:32.198Z,30.40
2022-08-05T13:06:01.512Z,30.30
2022-08-05T13:08:32.968Z,30.30
2022-08-05T13:11:01.984Z,30.30
2022-08-05T13:14:05.170Z,30.10
2022-08-05T13:16:19.458Z,30.00
2022-08-05T13:18:57.670Z,30.30
2022-08-05T13:21:28.187Z,30.60
2022-08-05T13:24:05.946Z,30.80
2022-08-05T13:26:36.164Z,30.50
2022-08-05T13:29:05.034Z,30.10
2022-08-05T13:31:33.781Z,30.00
2022-08-05T13:34:25.982Z,29.90
2022-08-05T13:36:54.092Z,30.10
2022-08-05T13:40:13.590Z,30.40
2022-08-05T13:42:14.619Z,30.70
2022-08-05T13:44:46.259Z,31.20
2022-08-05T13:47:35.817Z,31.40
2022-08-05T13:50:04.239Z,31.50
2022-08-05T13:52:35.352Z,31.70
2022-08-05T13:55:07.320Z,31.40
2022-08-05T13:57:51.268Z,31.50
2022-08-05T14:00:27.205Z,31.20
2022-08-05T14:02:56.696Z,30.80
2022-08-05T14:05:29.541Z,30.60
2022-08-05T14:08:20.819Z,30.60
2022-08-05T14:11:03.104Z,30.60
2022-08-05T14:13:42.370Z,30.40
2022-08-05T14:16:11.300Z,30.80
2022-08-05T14:18:44.122Z,31.10
2022-08-05T14:22:08.511Z,31.20
2022-08-05T14:23:58.839Z,31.50
2022-08-05T14:26:37.067Z,31.50
2022-08-05T14:29:16.361Z,31.70
2022-08-05T14:32:03.520Z,31.90
2022-08-05T14:34:35.186Z,32.00
2022-08-05T14:37:04.273Z,32.10
2022-08-05T14:39:49.648Z,32.10
2022-08-05T14:42:21.761Z,32.00
2022-08-05T14:44:49.497Z,32.30
2022-08-05T14:47:17.307Z,32.10
2022-08-05T14:50:18.359Z,31.80
2022-08-05T14:52:57.707Z,31.50
2022-08-05T14:55:28.755Z,31.50
2022-08-05T14:58:10.802Z,31.70
2022-08-05T15:00:58.430Z,31.70
2022-08-05T15:03:34.124Z,32.00
2022-08-05T15:06:15.092Z,32.10
2022-08-05T15:08:59.489Z,31.90
2022-08-05T15:11:53.272Z,31.70
2022-08-05T15:14:33.243Z,31.60
2022-08-05T15:17:04.290Z,31.50
2022-08-05T15:19:32.314Z,31.50
2022-08-05T15:22:00.985Z,31.40
2022-08-05T15:24:29.022Z,31.40
2022-08-05T15:26:57.155Z,31.30
2022-08-05T15:29:30.210Z,31.10
2022-08-05T15:32:03.047Z,31.20
2022-08-05T15:34:32.227Z,31.20
2022-08-05T15:37:06.233Z,31.00
2022-08-05T15:41:02.956Z,31.00
2022-08-05T15:42:49.996Z,30.90
2022-08-05T15:45:11.328Z,30.90
2022-08-05T15:47:39.127Z,30.80
2022-08-05T15:50:07.398Z,30.70
2022-08-05T15:52:53.586Z,30.60
2022-08-05T15:55:25.062Z,30.60
2022-08-05T15:58:16.777Z,30.60
2022-08-05T16:00:57.009Z,30.80
2022-08-05T16:03:32.750Z,30.90
2022-08-05T16:06:01.238Z,30.90
2022-08-05T16:08:30.773Z,30.90
2022-08-05T16:10:58.739Z,30.90
2022-08-05T16:13:34.372Z,30.90
2022-08-05T16:16:05.582Z,30.80
2022-08-05T16:18:33.063Z,30.60
2022-08-05T16:21:04.234Z,30.60
2022-08-05T16:23:53.277Z,30.50
2022-08-05T16:26:26.204Z,30.30
2022-08-05T16:28:54.624Z,30.20
2022-08-05T16:31:22.160Z,30.10
2022-08-05T16:33:49.728Z,30.00
2022-08-05T16:36:20.145Z,29.90
2022-08-05T16:38:54.863Z,29.90
2022-08-05T16:42:14.087Z,29.90
2022-08-05T16:44:11.651Z,29.90
2022-08-05T16:46:41.080Z,29.80
2022-08-05T16:49:09.172Z,29.80
2022-08-05T16:51:50.233Z,29.70
2022-08-05T16:54:27.237Z,29.60
2022-08-05T16:56:57.644Z,29.50
2022-08-05T16:59:25.303Z,29.50
2022-08-05T17:01:56.206Z,29.40
2022-08-05T17:04:27.753Z,29.50
2022-08-05T17:06:59.946Z,29.40
2022-08-05T17:09:29.454Z,29.40
2022-08-05T17:11:59.860Z,29.30
2022-08-05T17:14:36.919Z,29.20
2022-08-05T17:17:14.531Z,29.10
2022-08-05T17:19:45.377Z,29.10
2022-08-05T17:22:17.911Z,29.10
2022-08-05T17:24:57.662Z,29.20
2022-08-05T17:27:33.692Z,29.30
2022-08-05T17:30:03.550Z,29.20
2022-08-05T17:32:33.848Z,29.20
2022-08-05T17:35:02.507Z,29.20
2022-08-05T17:37:40.280Z,29.10
2022-08-05T17:40:12.464Z,29.00
2022-08-05T17:42:43.196Z,29.00
2022-08-05T17:45:24.680Z,29.00
2022-08-05T17:47:55.349Z,29.00
2022-08-05T17:50:30.489Z,28.80
2022-08-05T17:52:59.400Z,28.70
2022-08-05T17:55:37.618Z,28.70
2022-08-05T17:58:09.923Z,28.60
2022-08-05T18:00:44.278Z,28.60
2022-08-05T18:06:06.138Z,28.40
2022-08-05T18:08:45.003Z,28.30
2022-08-05T18:11:24.793Z,28.40
2022-08-05T18:14:01.285Z,28.30
2022-08-05T18:16:32.405Z,28.20
2022-08-05T18:18:59.682Z,28.20
2022-08-05T18:21:28.159Z,28.10
2022-08-05T18:24:14.459Z,28.10
2022-08-05T18:26:42.052Z,28.10
2022-08-05T18:29:11.191Z,28.00
2022-08-05T18:31:38.576Z,28.00
2022-08-05T18:34:12.025Z,28.00
2022-08-05T18:36:41.226Z,27.90
2022-08-05T18:39:22.341Z,27.90
2022-08-05T18:42:06.278Z,27.80
2022-08-05T18:44:55.473Z,27.80
2022-08-05T18:47:22.881Z,27.80
2022-08-05T18:50:15.463Z,27.70
2022-08-05T18:52:51.262Z,27.80
2022-08-05T18:55:19.127Z,27.70
2022-08-05T18:57:53.368Z,27.60
2022-08-05T19:00:27.062Z,27.50
2022-08-05T19:02:57.770Z,27.20
2022-08-05T19:06:11.320Z,27.00
2022-08-05T19:08:19.778Z,26.80
2022-08-05T19:10:49.950Z,26.30
2022-08-05T19:13:17.371Z,25.70
2022-08-05T19:15:59.694Z,25.00
2022-08-05T19:18:31.306Z,24.10
2022-08-05T19:20:59.593Z,23.20
2022-08-05T19:24:07.615Z,22.40
2022-08-05T19:26:16.450Z,21.70
2022-08-05T19:28:43.961Z,21.20
2022-08-05T19:31:13.506Z,20.80
2022-08-05T19:33:48.261Z,20.50
2022-08-05T19:36:26.364Z,20.40
2022-08-05T19:38:55.122Z,20.20
2022-08-05T19:41:58.557Z,20.00
2022-08-05T19:44:15.435Z,19.90
2022-08-05T19:46:43.795Z,20.00
2022-08-05T19:49:12.584Z,20.00
2022-08-05T19:52:05.820Z,20.10
2022-08-05T19:54:32.668Z,20.10
2022-08-05T19:57:02.424Z,20.20
2022-08-05T20:00:00.823Z,20.30
2022-08-05T20:02:20.907Z,20.30
2022-08-05T20:04:48.362Z,20.40
2022-08-05T20:07:16.324Z,20.50
2022-08-05T20:10:13.331Z,20.50
2022-08-05T20:12:46.116Z,20.60
2022-08-05T20:15:48.231Z,20.50
2022-08-05T20:18:10.222Z,20.50
2022-08-05T20:20:55.129Z,20.60
2022-08-05T20:23:39.603Z,20.60
2022-08-05T20:26:16.424Z,20.60
2022-08-05T20:28:49.693Z,20.60
2022-08-05T20:31:21.459Z,20.60
2022-08-05T20:33:50.417Z,20.60
2022-08-05T20:36:19.490Z,20.70
2022-08-05T20:38:53.343Z,20.70
2022-08-05T20:41:27.480Z,20.70
2022-08-05T20:44:17.764Z,20.70
2022-08-05T20:46:47.917Z,20.80
2022-08-05T20:49:24.180Z,20.60
2022-08-05T20:51:54.136Z,20.50
2022-08-05T20:54:22.900Z,20.50
2022-08-05T20:56:52.958Z,20.40
2022-08-05T20:59:26.394Z,20.40
2022-08-05T21:01:57.914Z,20.30
2022-08-05T21:04:26.941Z,20.30
2022-08-05T21:06:54.934Z,20.40
2022-08-05T21:09:23.142Z,20.40
2022-08-05T21:12:09.373Z,20.40
2022-08-05T21:14:38.846Z,20.40
2022-08-05T21:17:06.501Z,20.40
2022-08-05T21:19:47.288Z,20.40
2022-08-05T21:22:21.637Z,20.40
2022-08-05T21:24:51.952Z,20.40
2022-08-05T21:27:25.027Z,20.40
2022-08-05T21:29:53.968Z,20.40
2022-08-05T21:32:27.076Z,20.30
2022-08-05T21:35:08.749Z,20.10
2022-08-05T21:37:53.096Z,19.90
2022-08-05T21:40:23.104Z,19.70
2022-08-05T21:42:52.009Z,19.40
2022-08-05T21:45:26.461Z,19.30
2022-08-05T21:48:08.886Z,19.20
2022-08-05T21:50:36.768Z,19.00
2022-08-05T21:53:17.475Z,19.00
2022-08-05T21:56:04.813Z,19.00
2022-08-05T21:58:32.744Z,18.90
2022-08-05T22:01:00.530Z,18.80
2022-08-05T22:03:48.560Z,18.80
2022-08-05T22:06:22.808Z,18.80
2022-08-05T22:08:52.174Z,18.90
2022-08-05T22:11:33.166Z,19.00
2022-08-05T22:14:06.569Z,18.90
2022-08-05T22:16:52.563Z,18.90
2022-08-05T22:20:01.116Z,18.90
2022-08-05T22:22:07.870Z,18.80
2022-08-05T22:24:55.961Z,18.90
2022-08-05T22:28:08.391Z,18.90
2022-08-05T22:30:56.213Z,19.00
2022-08-05T22:33:57.456Z,19.10
2022-08-05T22:36:14.678Z,19.10
2022-08-05T22:38:48.674Z,19.20
2022-08-05T22:42:04.223Z,19.20
2022-08-05T22:44:05.696Z,19.20
2022-08-05T22:46:32.932Z,19.30
2022-08-05T22:49:00.271Z,19.30
2022-08-05T22:52:03.442Z,19.30
2022-08-05T22:54:14.702Z,19.20
2022-08-05T22:56:41.963Z,19.00
2022-08-05T22:59:43.895Z,18.90
2022-08-05T23:02:06.112Z,18.90
2022-08-05T23:04:35.475Z,18.80
2022-08-05T23:07:03.281Z,18.70
2022-08-05T23:09:57.436Z,18.60
2022-08-05T23:12:18.133Z,18.60
2022-08-05T23:14:45.853Z,18.50
2022-08-05T23:17:34.850Z,18.50
2022-08-05T23:20:16.358Z,18.40
2022-08-05T23:22:48.323Z,18.30
2022-08-05T23:25:53.412Z,18.30
2022-08-05T23:28:06.870Z,18.20
2022-08-05T23:30:40.647Z,18.10
2022-08-05T23:33:16.388Z,18.00
2022-08-05T23:35:55.988Z,17.90
2022-08-05T23:38:24.498Z,17.80
2022-08-05T23:40:52.708Z,17.80
2022-08-05T23:43:24.921Z,17.70
2022-08-05T23:46:21.291Z,17.60
2022-08-05T23:49:00.840Z,17.60
2022-08-05T23:51:55.024Z,17.50
2022-08-05T23:54:26.760Z,17.50
2022-08-05T23:57:03.766Z,17.50
